Terminal Aerodrome Forecast
Issued by NWS Raleigh/Durham, NC

Home | Current Version | Previous Version | Text Only | Print | Product List | Glossary On
Versions: 1 2 3 4 5 6 7 8 9 10 11 12 13 14 15 16 17 18
000
FTUS42 KRAH 250540
TAFRDU
TAF
KRDU 250540Z 2506/2606 09004KT 3SM BR OVC006
      TEMPO 2506/2508 6SM BR BKN008 BKN015 BKN060
     FM251200 VRB03KT 6SM BR VCSH BKN008 OVC015
      TEMPO 2513/2517 4SM -SHRA BKN012 OVC025
     FM251800 31009KT P6SM BKN020
     FM252000 32009KT P6SM SCT030=

USA.gov is the U.S. government's official web portal to all federal, state and local government web resources and services.